Time;durP1;ratioP1;P1;durP2;ratioP2;P2;SDS_P1;SDS_P2;PMS_P1;PMS_P2;Temp;Humidity;BMP_temperature;BMP_pressure;BME280_temperature;BME280_humidity;BME280_pressure;Samples;Min_cycle;Max_cycle;Signal;HPM_P1;HPM_P2
2023/05/12 00:00:00;;;;;;;33.97;18.15;;;14.50;99.90;;;;;;5055571;28;20178;-68
2023/05/12 00:02:25;;;;;;;31.88;18.02;;;14.50;99.90;;;;;;5054950;28;20232;-67
2023/05/12 00:04:52;;;;;;;34.30;18.52;;;14.50;99.90;;;;;;5055663;28;20198;-67
2023/05/12 00:07:18;;;;;;;36.13;18.85;;;14.50;99.90;;;;;;5054939;28;20178;-68
2023/05/12 00:09:44;;;;;;;34.33;18.63;;;14.50;99.90;;;;;;5047898;28;20197;-67
2023/05/12 00:12:10;;;;;;;41.20;20.02;;;14.50;99.90;;;;;;5052501;28;20196;-67
2023/05/12 00:14:36;;;;;;;38.83;21.00;;;14.40;99.90;;;;;;5048820;28;21012;-67
2023/05/12 00:17:05;;;;;;;30.02;18.33;;;14.40;99.90;;;;;;5055167;28;20234;-67
2023/05/12 00:19:32;;;;;;;42.85;21.52;;;14.40;99.90;;;;;;5043072;28;20229;-68
2023/05/12 00:21:58;;;;;;;44.95;21.15;;;14.40;99.90;;;;;;5049214;28;20718;-68
2023/05/12 00:24:23;;;;;;;44.97;21.15;;;14.30;99.90;;;;;;5052507;28;20297;-69
2023/05/12 00:26:49;;;;;;;45.30;21.13;;;14.30;99.90;;;;;;5079018;28;20218;-67
2023/05/12 00:29:15;;;;;;;37.63;20.60;;;14.40;99.90;;;;;;5054921;28;20661;-68
2023/05/12 00:31:40;;;;;;;42.60;20.95;;;14.40;99.90;;;;;;5055311;28;20590;-68
2023/05/12 00:34:06;;;;;;;43.00;22.10;;;14.40;99.90;;;;;;5054647;28;20190;-69
2023/05/12 00:36:32;;;;;;;44.45;20.67;;;14.50;99.90;;;;;;5045576;28;20630;-69
2023/05/12 00:38:57;;;;;;;36.50;20.73;;;14.50;99.90;;;;;;5054947;28;20558;-70
2023/05/12 00:41:23;;;;;;;40.75;19.70;;;14.50;99.90;;;;;;5047666;28;20205;-69
2023/05/12 00:43:49;;;;;;;42.25;21.95;;;14.50;99.90;;;;;;5054533;28;20202;-69
2023/05/12 00:46:16;;;;;;;34.38;19.63;;;14.40;99.90;;;;;;5047782;28;20690;-68
2023/05/12 00:48:43;;;;;;;39.30;21.95;;;14.50;99.90;;;;;;5050294;28;20530;-68
2023/05/12 00:51:11;;;;;;;39.92;20.92;;;14.50;99.90;;;;;;5048621;28;20369;-69
2023/05/12 00:53:36;;;;;;;40.13;20.35;;;14.50;99.90;;;;;;5046757;28;20186;-66
2023/05/12 00:56:03;;;;;;;46.42;20.65;;;14.50;99.90;;;;;;5053999;28;20228;-69
2023/05/12 00:58:29;;;;;;;41.20;21.52;;;14.50;99.90;;;;;;5062452;28;20196;-69
2023/05/12 01:00:55;;;;;;;43.05;23.00;;;14.40;99.90;;;;;;5054303;28;20178;-69
2023/05/12 01:03:21;;;;;;;41.33;22.45;;;14.50;99.90;;;;;;5053996;28;20668;-69
2023/05/12 01:06:08;;;;;;;38.60;19.83;;;14.50;99.90;;;;;;5054271;28;20282;-69
2023/05/12 01:08:35;;;;;;;36.97;20.02;;;14.50;99.90;;;;;;5049094;28;20181;-69
2023/05/12 01:11:01;;;;;;;38.25;19.83;;;14.50;99.90;;;;;;5054145;28;20189;-69
2023/05/12 01:13:27;;;;;;;38.33;20.38;;;14.40;99.90;;;;;;5050397;28;20194;-69
2023/05/12 01:15:57;;;;;;;40.33;20.95;;;14.40;99.90;;;;;;5040507;28;20190;-69
2023/05/12 01:18:26;;;;;;;34.63;20.17;;;14.40;99.90;;;;;;5086210;28;20596;-68
2023/05/12 01:20:54;;;;;;;39.03;21.20;;;14.60;99.90;;;;;;5053504;28;20213;-68
2023/05/12 01:23:23;;;;;;;34.97;19.20;;;14.50;99.90;;;;;;5054051;28;20205;-67
2023/05/12 01:25:50;;;;;;;35.00;19.98;;;14.40;99.90;;;;;;5046439;28;20185;-67
2023/05/12 01:28:16;;;;;;;45.55;20.23;;;14.30;99.90;;;;;;5042624;28;20213;-69
2023/05/12 01:30:42;;;;;;;35.72;19.20;;;14.40;99.90;;;;;;5054292;28;20204;-72
2023/05/12 01:33:08;;;;;;;38.58;19.70;;;14.40;99.90;;;;;;5053815;28;20269;-68
2023/05/12 01:35:34;;;;;;;37.40;20.23;;;14.40;99.90;;;;;;5053308;28;20277;-68
2023/05/12 01:38:00;;;;;;;34.65;18.75;;;14.40;99.90;;;;;;5048580;28;20539;-69
2023/05/12 01:40:26;;;;;;;39.38;19.65;;;14.40;99.90;;;;;;5044770;28;20186;-69
2023/05/12 01:42:52;;;;;;;37.50;20.70;;;14.40;99.90;;;;;;5053671;28;20220;-68
2023/05/12 01:45:18;;;;;;;38.30;20.10;;;14.40;99.90;;;;;;5053280;28;20193;-68
2023/05/12 01:47:43;;;;;;;37.97;20.85;;;14.50;99.90;;;;;;5052758;28;20217;-69
2023/05/12 01:50:09;;;;;;;42.47;21.05;;;14.40;99.90;;;;;;5053405;28;20193;-68
2023/05/12 01:52:35;;;;;;;37.78;20.83;;;14.40;99.90;;;;;;5052293;28;20192;-68
2023/05/12 01:55:01;;;;;;;35.83;18.75;;;14.30;99.90;;;;;;5051587;28;20277;-69
2023/05/12 01:57:27;;;;;;;34.00;17.98;;;14.40;99.90;;;;;;5052550;28;20182;-69
2023/05/12 01:59:52;;;;;;;33.95;19.20;;;14.30;99.90;;;;;;5049822;28;20641;-68
2023/05/12 02:02:18;;;;;;;41.30;20.52;;;14.20;99.90;;;;;;5082400;28;20190;-72
2023/05/12 02:04:43;;;;;;;39.90;20.15;;;14.10;99.90;;;;;;5051499;28;20190;-69
2023/05/12 02:07:09;;;;;;;40.75;19.77;;;14.10;99.90;;;;;;5053134;28;20243;-72
2023/05/12 02:09:35;;;;;;;34.20;18.92;;;14.20;99.90;;;;;;5051818;28;20189;-69
2023/05/12 02:12:01;;;;;;;44.60;20.67;;;14.20;99.90;;;;;;5043453;28;20193;-68
2023/05/12 02:14:26;;;;;;;44.45;20.75;;;14.20;99.90;;;;;;5051611;28;20201;-69
2023/05/12 02:16:54;;;;;;;37.30;19.52;;;14.10;99.90;;;;;;5043437;28;20554;-69
2023/05/12 02:19:20;;;;;;;37.83;19.20;;;14.20;99.90;;;;;;5052234;28;20226;-76
2023/05/12 02:21:46;;;;;;;34.33;18.02;;;14.20;99.90;;;;;;5052988;28;20685;-71
2023/05/12 02:24:12;;;;;;;42.00;21.75;;;14.20;99.90;;;;;;5052696;28;20348;-69
2023/05/12 02:26:38;;;;;;;37.85;20.90;;;14.20;99.90;;;;;;5044513;28;20253;-69
2023/05/12 02:29:03;;;;;;;32.78;19.20;;;14.20;99.90;;;;;;5052882;28;20220;-69
2023/05/12 02:31:29;;;;;;;36.33;18.85;;;14.20;99.90;;;;;;5047476;28;20327;-69
2023/05/12 02:33:55;;;;;;;42.17;21.23;;;14.20;99.90;;;;;;5047213;28;20630;-69
2023/05/12 02:36:21;;;;;;;42.38;19.30;;;14.20;99.90;;;;;;5041329;28;20232;-69
2023/05/12 02:38:47;;;;;;;39.95;18.60;;;14.30;99.90;;;;;;5052654;28;20178;-68
2023/05/12 02:41:13;;;;;;;36.22;19.02;;;14.20;99.90;;;;;;5043708;28;20186;-69
2023/05/12 02:43:38;;;;;;;36.55;19.08;;;14.20;99.90;;;;;;5052256;28;20213;-69
2023/05/12 02:46:04;;;;;;;36.40;19.25;;;14.20;99.90;;;;;;5050963;28;20194;-69
2023/05/12 02:48:30;;;;;;;33.25;17.35;;;14.10;99.90;;;;;;5052527;28;20186;-69
2023/05/12 02:50:56;;;;;;;35.40;18.85;;;14.20;99.90;;;;;;5052467;28;20217;-68
2023/05/12 02:53:22;;;;;;;35.60;17.88;;;14.10;99.90;;;;;;5048921;28;20300;-67
2023/05/12 02:55:48;;;;;;;39.67;18.67;;;14.00;99.90;;;;;;5050613;28;20181;-69
2023/05/12 02:58:13;;;;;;;37.13;17.10;;;13.90;99.90;;;;;;5052283;28;20194;-67
2023/05/12 03:00:39;;;;;;;29.77;16.33;;;13.80;99.90;;;;;;5050930;28;20220;-69
2023/05/12 03:03:04;;;;;;;27.15;14.65;;;13.70;99.90;;;;;;5069237;28;20218;-66
2023/05/12 03:05:30;;;;;;;26.30;13.73;;;13.60;99.90;;;;;;5046270;28;20244;-67
2023/05/12 03:07:56;;;;;;;21.17;13.55;;;13.40;99.90;;;;;;5051248;28;20197;-66
2023/05/12 03:10:22;;;;;;;23.10;12.93;;;13.40;99.90;;;;;;5052634;28;20734;-67
2023/05/12 03:12:47;;;;;;;20.65;11.63;;;13.30;99.90;;;;;;5052107;28;20280;-68
2023/05/12 03:15:13;;;;;;;18.73;11.52;;;13.10;99.90;;;;;;5049302;28;20214;-67
2023/05/12 03:17:39;;;;;;;20.73;11.15;;;13.10;99.90;;;;;;5035278;28;20265;-67
2023/05/12 03:20:05;;;;;;;21.25;11.45;;;13.20;99.90;;;;;;5050563;28;20272;-67
2023/05/12 03:22:31;;;;;;;21.48;10.20;;;13.20;99.90;;;;;;5047456;28;20555;-67
2023/05/12 03:24:57;;;;;;;14.95;9.63;;;13.20;99.90;;;;;;5048555;28;20185;-67
2023/05/12 03:27:22;;;;;;;19.13;10.43;;;13.10;99.90;;;;;;5051847;28;20186;-67
2023/05/12 03:29:48;;;;;;;14.18;9.82;;;13.10;99.90;;;;;;5047882;28;20206;-67
2023/05/12 03:32:14;;;;;;;15.65;9.05;;;13.20;99.90;;;;;;5042448;28;20189;-73
2023/05/12 03:34:40;;;;;;;15.57;8.60;;;13.30;99.90;;;;;;5051303;28;20201;-67
2023/05/12 03:37:05;;;;;;;15.30;9.02;;;13.30;99.90;;;;;;5052083;28;20190;-67
2023/05/12 03:39:31;;;;;;;13.05;7.47;;;13.50;99.90;;;;;;5051251;28;20182;-68
2023/05/12 03:41:57;;;;;;;13.52;8.18;;;13.40;99.90;;;;;;5046655;28;20273;-67
2023/05/12 03:44:22;;;;;;;13.18;9.25;;;13.30;99.90;;;;;;5041044;28;20273;-67
2023/05/12 03:46:48;;;;;;;14.35;8.68;;;13.30;99.90;;;;;;5080853;28;20243;-67
2023/05/12 03:49:13;;;;;;;17.35;9.05;;;13.40;99.90;;;;;;5051874;28;20182;-68
2023/05/12 03:51:40;;;;;;;13.45;9.52;;;13.40;99.90;;;;;;5052252;28;20205;-68
2023/05/12 03:54:05;;;;;;;13.05;7.95;;;13.50;99.90;;;;;;5050770;28;20186;-67
2023/05/12 03:56:31;;;;;;;13.43;8.65;;;13.40;99.90;;;;;;5047214;28;20731;-64
2023/05/12 03:58:57;;;;;;;19.75;10.30;;;13.40;99.90;;;;;;5047246;28;20190;-66
2023/05/12 04:01:22;;;;;;;14.80;9.00;;;13.30;99.90;;;;;;5040329;28;20249;-65
2023/05/12 04:03:48;;;;;;;17.83;9.27;;;13.10;99.90;;;;;;5056354;28;20207;-70
2023/05/12 04:06:13;;;;;;;16.15;8.68;;;13.00;99.90;;;;;;5050861;28;20569;-66
2023/05/12 04:08:39;;;;;;;19.13;8.63;;;13.00;99.90;;;;;;5047366;28;20694;-66
2023/05/12 04:11:05;;;;;;;16.42;8.27;;;13.10;99.90;;;;;;5048162;28;20289;-65
2023/05/12 04:13:31;;;;;;;13.82;9.35;;;13.10;99.90;;;;;;5053674;28;20205;-67
2023/05/12 04:15:58;;;;;;;17.95;10.90;;;13.20;99.90;;;;;;5054817;28;20205;-65
2023/05/12 04:18:27;;;;;;;16.83;9.13;;;13.30;99.90;;;;;;5033960;28;20218;-67
2023/05/12 04:20:54;;;;;;;16.13;10.10;;;13.30;99.90;;;;;;5051746;28;20186;-66
2023/05/12 04:23:20;;;;;;;14.80;9.45;;;13.30;99.90;;;;;;5053816;28;20233;-65
2023/05/12 04:25:46;;;;;;;13.45;8.90;;;13.20;99.90;;;;;;5054740;28;20227;-63
2023/05/12 04:28:12;;;;;;;15.77;8.73;;;13.20;99.90;;;;;;5051537;28;20181;-65
2023/05/12 04:30:41;;;;;;;14.00;8.43;;;13.20;99.90;;;;;;5044024;28;20209;-65
2023/05/12 04:33:08;;;;;;;14.48;9.32;;;13.00;99.90;;;;;;5050357;28;20264;-66
2023/05/12 04:35:34;;;;;;;14.63;8.23;;;12.90;99.90;;;;;;5054511;28;20546;-66
2023/05/12 04:38:01;;;;;;;13.50;8.35;;;12.90;99.90;;;;;;5051865;28;20170;-67
2023/05/12 04:40:27;;;;;;;13.15;8.52;;;12.90;99.90;;;;;;5054941;28;20519;-66
2023/05/12 04:42:52;;;;;;;13.60;7.90;;;12.90;99.90;;;;;;5054120;28;20580;-67
2023/05/12 04:45:18;;;;;;;14.18;8.70;;;13.00;99.90;;;;;;5053570;28;20186;-68
2023/05/12 04:47:44;;;;;;;17.98;9.75;;;13.10;99.90;;;;;;5054123;28;20197;-67
2023/05/12 04:50:10;;;;;;;15.15;9.73;;;13.00;99.90;;;;;;5054019;28;20192;-67
2023/05/12 04:52:36;;;;;;;15.82;8.73;;;12.90;99.90;;;;;;5037425;28;20221;-66
2023/05/12 04:55:03;;;;;;;16.75;9.48;;;12.90;99.90;;;;;;5038720;28;20192;-67
2023/05/12 04:57:28;;;;;;;18.77;11.18;;;12.90;99.90;;;;;;5049368;28;20209;-65
2023/05/12 04:59:55;;;;;;;19.35;12.55;;;13.00;99.90;;;;;;5054566;28;20213;-65
2023/05/12 05:02:21;;;;;;;25.17;13.88;;;12.90;99.90;;;;;;5048119;28;20193;-65
2023/05/12 05:04:47;;;;;;;27.10;15.48;;;12.90;99.90;;;;;;5047891;28;20195;-64
2023/05/12 05:07:13;;;;;;;25.33;15.68;;;12.90;99.90;;;;;;5050323;28;20643;-65
2023/05/12 05:09:39;;;;;;;29.50;16.67;;;13.00;99.90;;;;;;5050515;28;20212;-65
2023/05/12 05:12:06;;;;;;;28.52;15.68;;;13.10;99.90;;;;;;5053643;28;20667;-66
2023/05/12 05:14:31;;;;;;;25.08;15.57;;;13.10;99.90;;;;;;5086461;28;20194;-68
2023/05/12 05:16:58;;;;;;;29.83;16.70;;;13.00;99.90;;;;;;5053458;28;20208;-65
2023/05/12 05:19:24;;;;;;;30.35;17.08;;;13.00;99.90;;;;;;5053575;28;20226;-64
2023/05/12 05:21:50;;;;;;;26.50;16.52;;;12.90;99.90;;;;;;5051468;28;20252;-67
2023/05/12 05:24:16;;;;;;;26.85;15.75;;;12.80;99.90;;;;;;5053676;28;20209;-65
2023/05/12 05:26:41;;;;;;;28.33;16.20;;;12.80;99.90;;;;;;5049204;28;20228;-64
2023/05/12 05:29:07;;;;;;;24.92;15.10;;;12.80;99.90;;;;;;5053906;28;20193;-65
2023/05/12 05:31:33;;;;;;;25.35;15.18;;;12.90;99.90;;;;;;5051607;28;20295;-65
2023/05/12 05:33:58;;;;;;;24.00;13.90;;;12.90;99.90;;;;;;5045096;28;20182;-65
2023/05/12 05:36:25;;;;;;;21.23;13.25;;;12.90;99.90;;;;;;5049052;28;20193;-64
2023/05/12 05:38:51;;;;;;;20.40;13.60;;;12.90;99.90;;;;;;5049471;28;20182;-65
2023/05/12 05:41:17;;;;;;;28.48;13.45;;;13.00;99.90;;;;;;5074640;28;20193;-66
2023/05/12 05:43:42;;;;;;;24.30;12.70;;;13.00;99.90;;;;;;5051622;28;20233;-66
2023/05/12 05:46:08;;;;;;;25.92;13.68;;;13.10;99.90;;;;;;5053472;28;20271;-65
2023/05/12 05:48:35;;;;;;;25.95;13.48;;;13.10;99.90;;;;;;5086075;28;20231;-66
2023/05/12 05:51:01;;;;;;;21.92;13.73;;;13.10;99.90;;;;;;5049075;28;20257;-65
2023/05/12 05:53:27;;;;;;;20.77;12.20;;;13.10;99.90;;;;;;5037662;28;20194;-66
2023/05/12 05:55:52;;;;;;;20.17;12.70;;;13.10;99.90;;;;;;5050059;28;20186;-67
2023/05/12 05:58:18;;;;;;;17.35;12.38;;;13.10;99.90;;;;;;5042087;28;20201;-65
2023/05/12 06:00:44;;;;;;;23.55;11.38;;;13.00;99.90;;;;;;5049508;28;20192;-66
2023/05/12 06:03:10;;;;;;;25.13;13.40;;;13.00;99.90;;;;;;5033496;28;20253;-65
2023/05/12 06:05:36;;;;;;;17.45;10.40;;;13.00;99.90;;;;;;5046915;28;20183;-65
2023/05/12 06:08:01;;;;;;;20.08;11.05;;;13.00;99.90;;;;;;5052370;28;20182;-65
2023/05/12 06:10:27;;;;;;;19.90;11.70;;;13.10;99.90;;;;;;5047845;28;20208;-65
2023/05/12 06:12:53;;;;;;;21.17;11.05;;;13.10;99.90;;;;;;5051163;28;20224;-65
2023/05/12 06:15:18;;;;;;;19.27;10.68;;;13.00;99.90;;;;;;5048094;28;20669;-66
2023/05/12 06:17:44;;;;;;;19.42;10.35;;;13.10;99.90;;;;;;5052686;28;20182;-65
2023/05/12 06:20:12;;;;;;;21.23;10.63;;;13.10;99.90;;;;;;5043473;28;20232;-65
2023/05/12 06:22:38;;;;;;;19.75;12.32;;;13.10;99.90;;;;;;5054922;28;20550;-66
2023/05/12 06:25:04;;;;;;;17.02;10.77;;;13.10;99.90;;;;;;5033473;28;20194;-66
2023/05/12 06:27:30;;;;;;;19.60;10.13;;;13.10;99.90;;;;;;5048792;28;20527;-67
2023/05/12 06:29:55;;;;;;;17.98;10.55;;;13.20;99.90;;;;;;5052947;28;20182;-67
2023/05/12 06:32:21;;;;;;;29.27;11.13;;;13.30;99.90;;;;;;5051183;28;20197;-65
2023/05/12 06:34:47;;;;;;;18.02;9.07;;;13.10;99.90;;;;;;5084018;28;20217;-67
2023/05/12 06:37:12;;;;;;;14.52;9.75;;;13.10;99.90;;;;;;5042725;28;20191;-65
2023/05/12 06:39:38;;;;;;;17.35;11.18;;;13.00;99.90;;;;;;5048416;28;20182;-65
2023/05/12 06:42:04;;;;;;;25.08;10.32;;;13.00;99.90;;;;;;5052561;28;20197;-64
2023/05/12 06:44:30;;;;;;;17.77;9.70;;;13.10;99.90;;;;;;5041233;28;20301;-65
2023/05/12 06:46:56;;;;;;;15.30;10.50;;;13.10;99.90;;;;;;5050959;28;20268;-65
2023/05/12 06:49:22;;;;;;;18.42;11.20;;;13.20;99.90;;;;;;5050585;28;20240;-66
2023/05/12 06:51:47;;;;;;;15.32;10.18;;;13.20;99.90;;;;;;5048731;28;20650;-65
2023/05/12 06:54:13;;;;;;;23.65;10.85;;;13.20;99.90;;;;;;5052305;28;20193;-65
2023/05/12 06:56:38;;;;;;;18.42;9.98;;;13.20;99.90;;;;;;5052286;28;20268;-65
2023/05/12 06:59:04;;;;;;;17.30;10.75;;;13.30;99.90;;;;;;5051074;28;20220;-65
2023/05/12 07:01:31;;;;;;;20.13;9.68;;;13.20;99.90;;;;;;5052163;28;20193;-65
2023/05/12 07:03:58;;;;;;;23.98;12.18;;;13.20;99.90;;;;;;5042840;28;20237;-65
2023/05/12 07:06:26;;;;;;;22.30;11.15;;;13.30;99.90;;;;;;5049335;28;20204;-65
2023/05/12 07:08:52;;;;;;;18.55;10.57;;;13.20;99.90;;;;;;5080308;28;20208;-65
2023/05/12 07:11:20;;;;;;;19.67;10.68;;;13.30;99.90;;;;;;5049105;28;20236;-65
2023/05/12 07:13:47;;;;;;;18.38;10.80;;;13.40;99.90;;;;;;5052413;28;20639;-69
2023/05/12 07:16:14;;;;;;;15.35;9.93;;;13.40;99.90;;;;;;5039066;28;20186;-65
2023/05/12 07:18:39;;;;;;;15.88;10.23;;;13.40;99.90;;;;;;5041376;28;20238;-65
2023/05/12 07:21:05;;;;;;;14.43;9.88;;;13.50;99.90;;;;;;5038901;28;20590;-65
2023/05/12 07:23:33;;;;;;;18.13;11.82;;;13.40;99.90;;;;;;5046981;28;20217;-65
2023/05/12 07:25:59;;;;;;;21.45;11.57;;;13.50;99.90;;;;;;5048657;28;20276;-65
2023/05/12 07:28:24;;;;;;;22.23;11.80;;;13.50;99.90;;;;;;5052144;28;20201;-65
2023/05/12 07:30:50;;;;;;;21.17;12.27;;;13.60;99.90;;;;;;5050813;28;20190;-65
2023/05/12 07:33:16;;;;;;;22.98;11.95;;;13.70;99.90;;;;;;5049318;28;20220;-65
2023/05/12 07:35:41;;;;;;;19.27;10.73;;;13.60;99.90;;;;;;5048897;28;20270;-67
2023/05/12 07:38:08;;;;;;;14.85;9.40;;;13.60;99.90;;;;;;5051952;28;20183;-65
2023/05/12 07:40:34;;;;;;;13.77;9.93;;;13.60;99.90;;;;;;5050440;28;20186;-65
2023/05/12 07:43:01;;;;;;;13.38;9.93;;;13.50;99.90;;;;;;5038834;28;20221;-65
2023/05/12 07:45:27;;;;;;;13.82;8.60;;;13.60;99.90;;;;;;5053096;28;20548;-65
2023/05/12 07:47:53;;;;;;;11.15;7.63;;;13.60;99.90;;;;;;5040148;28;20273;-65
2023/05/12 07:50:18;;;;;;;13.00;7.45;;;13.70;99.90;;;;;;5086751;28;20201;-65
2023/05/12 07:52:52;;;;;;;13.75;7.75;;;13.70;99.90;;;;;;5077294;28;20185;-65
2023/05/12 07:55:19;;;;;;;10.82;7.65;;;13.70;99.90;;;;;;5055207;28;20184;-64
2023/05/12 07:57:45;;;;;;;9.55;6.28;;;13.50;99.90;;;;;;5055245;28;20239;-65
2023/05/12 08:00:12;;;;;;;11.13;7.38;;;13.50;99.90;;;;;;5043123;28;20183;-65
2023/05/12 08:02:38;;;;;;;10.15;6.80;;;13.40;99.90;;;;;;5054512;28;20205;-64
2023/05/12 08:05:05;;;;;;;11.43;6.45;;;13.40;99.90;;;;;;5055055;28;20602;-64
2023/05/12 08:07:31;;;;;;;14.73;8.20;;;13.20;99.90;;;;;;5055370;28;20537;-64
2023/05/12 08:09:56;;;;;;;12.65;7.15;;;13.20;99.90;;;;;;5046637;28;20182;-64
2023/05/12 08:12:22;;;;;;;14.48;8.18;;;13.20;99.90;;;;;;5065199;28;20179;-65
2023/05/12 08:14:48;;;;;;;17.88;8.90;;;13.30;99.90;;;;;;5055377;28;20197;-64
2023/05/12 08:17:13;;;;;;;16.98;7.88;;;13.40;99.90;;;;;;5041599;28;20217;-65
2023/05/12 08:19:39;;;;;;;22.00;9.70;;;13.60;99.90;;;;;;5087238;28;20317;-64
2023/05/12 08:22:05;;;;;;;20.15;11.23;;;13.80;99.90;;;;;;5045648;28;20198;-66
2023/05/12 08:24:31;;;;;;;18.48;10.00;;;13.80;99.90;;;;;;5053082;28;20670;-65
2023/05/12 08:26:56;;;;;;;20.35;10.23;;;13.80;99.90;;;;;;5054809;28;20209;-65
2023/05/12 08:29:22;;;;;;;22.23;9.25;;;13.70;99.90;;;;;;5053834;28;20222;-64
2023/05/12 08:31:47;;;;;;;17.85;10.20;;;13.80;99.90;;;;;;5039953;28;20206;-63
2023/05/12 08:34:13;;;;;;;23.00;11.05;;;14.00;99.90;;;;;;5045409;28;20195;-65
2023/05/12 08:36:39;;;;;;;19.67;9.45;;;14.20;99.90;;;;;;5054290;28;20277;-65
2023/05/12 08:39:05;;;;;;;23.65;10.75;;;14.20;99.90;;;;;;5052787;28;20257;-64
2023/05/12 08:41:39;;;;;;;18.63;8.82;;;14.10;99.90;;;;;;5049738;28;20197;-64
2023/05/12 08:44:05;;;;;;;11.95;7.28;;;14.00;99.90;;;;;;5082910;28;20221;-67
2023/05/12 08:46:31;;;;;;;17.73;7.25;;;14.10;99.90;;;;;;5052220;28;20186;-64
2023/05/12 08:49:00;;;;;;;13.48;7.03;;;14.20;99.90;;;;;;5052131;28;20197;-65
2023/05/12 08:51:28;;;;;;;14.32;7.65;;;14.40;99.90;;;;;;5046077;28;20269;-64
2023/05/12 08:53:55;;;;;;;9.02;6.55;;;14.70;99.90;;;;;;5051374;28;20186;-63
2023/05/12 08:56:21;;;;;;;11.38;6.10;;;14.70;99.90;;;;;;5054400;28;20186;-64
2023/05/12 08:58:47;;;;;;;12.18;5.95;;;14.60;99.90;;;;;;5042123;28;20252;-65
2023/05/12 09:01:14;;;;;;;8.20;5.13;;;14.70;99.90;;;;;;5033245;28;20221;-64
2023/05/12 09:03:40;;;;;;;11.85;5.43;;;14.70;99.90;;;;;;5044271;28;20251;-64
2023/05/12 09:06:07;;;;;;;11.50;5.10;;;14.40;99.90;;;;;;5044228;28;20196;-63
2023/05/12 09:08:34;;;;;;;7.85;4.45;;;14.30;99.90;;;;;;5076945;28;20249;-65
2023/05/12 09:11:00;;;;;;;9.85;4.90;;;14.40;99.90;;;;;;5053041;28;20232;-64
2023/05/12 09:13:59;;;;;;;9.40;5.65;;;14.60;99.90;;;;;;5046271;28;20189;-66
2023/05/12 09:16:29;;;;;;;6.10;4.38;;;14.70;99.90;;;;;;5042235;28;20585;-65
2023/05/12 09:18:57;;;;;;;9.15;5.10;;;14.90;99.90;;;;;;5044492;28;20632;-65
2023/05/12 09:21:24;;;;;;;5.70;3.88;;;15.20;99.90;;;;;;5054363;28;20186;-65
2023/05/12 09:24:05;;;;;;;6.15;3.40;;;15.20;99.90;;;;;;5054006;28;20213;-66
2023/05/12 09:26:43;;;;;;;6.03;4.03;;;15.40;99.90;;;;;;5042381;28;20213;-65
2023/05/12 09:29:10;;;;;;;7.80;3.83;;;15.50;99.90;;;;;;5045916;28;20195;-65
2023/05/12 09:31:36;;;;;;;6.43;4.28;;;15.50;99.90;;;;;;5048661;28;20183;-65
2023/05/12 09:34:07;;;;;;;6.22;4.25;;;15.50;99.90;;;;;;5047605;28;20236;-65
2023/05/12 09:36:33;;;;;;;5.25;3.85;;;15.50;99.90;;;;;;5051138;28;20657;-65
2023/05/12 09:39:05;;;;;;;5.30;3.35;;;15.60;99.90;;;;;;5052177;28;20205;-64
2023/05/12 09:41:35;;;;;;;5.75;3.40;;;15.60;99.90;;;;;;5048593;28;20182;-66
2023/05/12 09:44:01;;;;;;;8.52;4.38;;;16.10;99.90;;;;;;5046975;28;20190;-65
2023/05/12 09:46:27;;;;;;;4.97;3.90;;;16.40;99.90;;;;;;5048598;28;20201;-66
2023/05/12 09:48:56;;;;;;;7.82;4.00;;;16.50;99.90;;;;;;5051797;28;20666;-65
2023/05/12 09:51:23;;;;;;;4.72;3.67;;;16.30;99.90;;;;;;5051814;28;20546;-68
2023/05/12 09:53:49;;;;;;;6.68;3.58;;;16.10;99.90;;;;;;5075351;28;20184;-66
2023/05/12 09:56:16;;;;;;;6.32;4.07;;;15.70;99.90;;;;;;5043762;28;20187;-67
2023/05/12 09:58:43;;;;;;;7.15;4.38;;;15.30;99.90;;;;;;5039587;28;20186;-67
2023/05/12 10:01:15;;;;;;;5.18;3.55;;;14.90;99.90;;;;;;5053399;28;20211;-66
2023/05/12 10:03:42;;;;;;;6.18;5.00;;;14.80;99.90;;;;;;5053148;28;20198;-69
2023/05/12 10:06:13;;;;;;;6.97;4.63;;;14.70;99.90;;;;;;5053237;28;20206;-65
2023/05/12 10:09:24;;;;;;;6.85;4.13;;;14.50;99.90;;;;;;5046324;28;20702;-66
2023/05/12 10:11:50;;;;;;;6.32;3.72;;;14.30;99.90;;;;;;5063622;28;20204;-68
2023/05/12 10:14:17;;;;;;;8.13;3.85;;;14.20;99.90;;;;;;5049912;28;20658;-69
2023/05/12 10:16:45;;;;;;;6.43;3.95;;;14.20;99.90;;;;;;5052276;28;20204;-67
2023/05/12 10:19:12;;;;;;;7.63;4.22;;;14.30;99.90;;;;;;5051582;28;20230;-69
2023/05/12 10:21:39;;;;;;;8.55;4.47;;;14.30;99.90;;;;;;5047576;28;20185;-68
2023/05/12 10:24:06;;;;;;;8.93;4.53;;;14.50;99.90;;;;;;5045780;28;20757;-66
2023/05/12 10:26:33;;;;;;;7.78;3.83;;;14.80;99.90;;;;;;5048504;28;20269;-68
2023/05/12 10:29:00;;;;;;;5.80;3.55;;;15.20;99.90;;;;;;5032612;28;20194;-66
2023/05/12 10:31:26;;;;;;;5.28;3.60;;;15.60;99.90;;;;;;5048748;28;20240;-66
2023/05/12 10:34:00;;;;;;;6.57;3.88;;;15.70;99.90;;;;;;5049225;28;20201;-68
2023/05/12 10:36:26;;;;;;;5.05;3.47;;;16.00;99.90;;;;;;5036577;28;20178;-67
2023/05/12 10:38:53;;;;;;;5.63;3.50;;;16.20;99.90;;;;;;5038623;28;20190;-68
2023/05/12 10:41:33;;;;;;;6.30;3.95;;;16.30;99.90;;;;;;5049084;28;20329;-67
2023/05/12 10:43:59;;;;;;;5.70;4.05;;;15.90;99.90;;;;;;5051320;28;20254;-65
2023/05/12 10:46:26;;;;;;;8.93;4.40;;;16.00;99.90;;;;;;5046023;28;20216;-68
2023/05/12 10:48:57;;;;;;;5.90;4.00;;;16.40;99.90;;;;;;5044319;28;20185;-72
2023/05/12 10:51:27;;;;;;;5.55;4.57;;;16.80;99.90;;;;;;5056907;28;20269;-68
2023/05/12 10:53:57;;;;;;;8.18;4.95;;;17.30;99.90;;;;;;5048889;28;20213;-68
2023/05/12 10:56:25;;;;;;;6.05;5.15;;;17.70;99.90;;;;;;5039100;28;20221;-67
2023/05/12 10:59:11;;;;;;;8.75;4.88;;;17.70;99.90;;;;;;5049911;28;20182;-67
2023/05/12 11:01:37;;;;;;;6.93;5.22;;;17.70;99.90;;;;;;5051651;28;20185;-66
2023/05/12 11:04:13;;;;;;;8.80;5.57;;;17.30;99.90;;;;;;5038217;28;20232;-66
2023/05/12 11:06:40;;;;;;;9.57;6.38;;;17.40;99.90;;;;;;5075665;28;20185;-68
2023/05/12 11:09:06;;;;;;;7.78;6.15;;;17.40;99.90;;;;;;5049194;28;20182;-67
2023/05/12 11:11:32;;;;;;;6.70;5.00;;;17.40;99.90;;;;;;5050688;28;20223;-67
2023/05/12 11:13:58;;;;;;;8.05;6.05;;;17.40;99.90;;;;;;5050732;28;20198;-68
2023/05/12 11:16:24;;;;;;;9.60;6.45;;;17.30;99.90;;;;;;5065235;28;20201;-68
2023/05/12 11:19:03;;;;;;;8.45;5.75;;;17.10;99.90;;;;;;5046444;28;20705;-70
2023/05/12 11:21:32;;;;;;;9.55;7.13;;;16.80;99.90;;;;;;5043032;28;20287;-67
2023/05/12 11:23:59;;;;;;;11.15;6.63;;;16.70;99.90;;;;;;5051280;28;20667;-68
2023/05/12 11:26:26;;;;;;;8.73;7.00;;;16.60;99.90;;;;;;5045330;28;20177;-68
2023/05/12 11:28:52;;;;;;;7.82;6.75;;;16.10;99.90;;;;;;5055919;28;20193;-67
2023/05/12 11:31:19;;;;;;;9.35;8.32;;;15.80;99.90;;;;;;5056703;28;20178;-69
2023/05/12 11:33:46;;;;;;;7.85;7.00;;;15.50;99.90;;;;;;5045459;28;20650;-67
2023/05/12 11:36:11;;;;;;;9.45;7.93;;;15.40;99.90;;;;;;5068889;28;20182;-67
2023/05/12 11:38:37;;;;;;;9.57;7.85;;;15.30;99.90;;;;;;5046977;28;20776;-69
2023/05/12 11:41:03;;;;;;;10.05;7.82;;;15.30;99.90;;;;;;5083308;28;20196;-68
2023/05/12 11:43:29;;;;;;;11.27;7.85;;;15.70;99.90;;;;;;5054454;28;20276;-69
2023/05/12 11:45:55;;;;;;;10.73;8.52;;;15.90;99.90;;;;;;5040255;28;20218;-71
2023/05/12 11:48:30;;;;;;;10.63;7.38;;;16.10;99.90;;;;;;5053510;28;20206;-71
2023/05/12 11:50:56;;;;;;;9.85;7.50;;;16.50;99.90;;;;;;5054920;28;20169;-70
2023/05/12 11:53:22;;;;;;;8.35;7.32;;;16.90;99.90;;;;;;5082550;28;20285;-69
2023/05/12 11:55:53;;;;;;;8.63;7.75;;;17.00;99.90;;;;;;5052032;28;20226;-69
2023/05/12 11:58:25;;;;;;;9.02;7.75;;;17.20;99.90;;;;;;5040664;28;20232;-69
2023/05/12 12:00:52;;;;;;;9.68;7.22;;;17.20;99.90;;;;;;5052835;28;20178;-69
2023/05/12 12:03:18;;;;;;;9.20;7.00;;;17.30;99.90;;;;;;5054429;28;20624;-69
2023/05/12 12:05:57;;;;;;;10.68;8.15;;;17.40;99.90;;;;;;5056235;28;20182;-69
2023/05/12 12:08:23;;;;;;;8.30;7.50;;;17.60;99.90;;;;;;5081154;28;20235;-70
2023/05/12 12:10:49;;;;;;;9.82;7.20;;;18.00;99.90;;;;;;5053493;28;20190;-69
2023/05/12 12:13:22;;;;;;;8.35;7.50;;;18.20;99.90;;;;;;5053028;28;20190;-69
2023/05/12 12:15:49;;;;;;;8.90;6.20;;;17.90;99.90;;;;;;5087435;28;20190;-70
2023/05/12 12:18:15;;;;;;;7.35;6.25;;;17.70;99.90;;;;;;5048765;28;20256;-70
2023/05/12 12:20:42;;;;;;;8.25;5.93;;;17.70;99.90;;;;;;5050051;28;20614;-69
2023/05/12 12:23:07;;;;;;;10.43;7.03;;;17.80;99.90;;;;;;5054671;28;20535;-71
2023/05/12 12:25:33;;;;;;;8.60;6.05;;;17.80;99.90;;;;;;5049693;28;20193;-69
2023/05/12 12:27:59;;;;;;;6.90;6.07;;;18.10;99.90;;;;;;5053518;28;20284;-69
2023/05/12 12:30:25;;;;;;;6.75;5.97;;;17.90;99.90;;;;;;5050337;28;20232;-68
2023/05/12 12:32:51;;;;;;;9.25;5.88;;;17.70;99.90;;;;;;5054102;28;20208;-71